createdAt,value
2018-11-10T00:01:27.469Z,47.93
2018-11-10T00:03:57.486Z,50.37
2018-11-10T00:06:27.538Z,47.90
2018-11-10T00:08:57.496Z,43.97
2018-11-10T00:11:27.433Z,50.23
2018-11-10T00:13:57.456Z,48.97
2018-11-10T00:16:27.433Z,49.87
2018-11-10T00:18:57.380Z,50.37
2018-11-10T00:21:27.401Z,45.73
2018-11-10T00:23:57.366Z,49.00
2018-11-10T00:26:27.401Z,46.73
2018-11-10T00:28:57.627Z,45.57
2018-11-10T00:31:27.921Z,43.63
2018-11-10T00:33:57.911Z,45.47
2018-11-10T00:36:27.887Z,46.40
2018-11-10T00:38:57.853Z,49.97
2018-11-10T00:41:27.974Z,46.83
2018-11-10T00:43:57.942Z,41.50
2018-11-10T00:46:28.028Z,45.43
2018-11-10T00:48:57.975Z,41.60
2018-11-10T00:51:28.080Z,41.67
2018-11-10T00:53:58.126Z,40.07
2018-11-10T00:56:28.257Z,45.37
2018-11-10T00:58:58.207Z,41.60
2018-11-10T01:01:28.384Z,43.93
2018-11-10T01:03:58.469Z,44.40
2018-11-10T01:06:28.464Z,44.27
2018-11-10T01:08:58.505Z,48.30
2018-11-10T01:11:28.541Z,45.00
2018-11-10T01:13:58.529Z,49.10
2018-11-10T01:16:28.591Z,43.73
2018-11-10T01:18:58.607Z,45.63
2018-11-10T01:21:28.641Z,43.13
2018-11-10T01:23:58.758Z,45.37
2018-11-10T01:26:28.750Z,44.73
2018-11-10T01:28:58.675Z,43.43
2018-11-10T01:31:28.595Z,44.47
2018-11-10T01:33:58.671Z,43.90
2018-11-10T01:36:28.652Z,45.30
2018-11-10T01:38:58.724Z,47.70
2018-11-10T01:41:28.671Z,42.83
2018-11-10T01:43:58.707Z,46.67
2018-11-10T01:46:28.739Z,46.77
2018-11-10T01:48:58.730Z,45.57
2018-11-10T01:51:28.779Z,45.60
2018-11-10T01:53:58.849Z,50.07
2018-11-10T01:56:28.743Z,55.20
2018-11-10T01:58:58.977Z,47.33
2018-11-10T02:01:29.045Z,44.47
2018-11-10T02:04:00.227Z,50.87
2018-11-10T02:06:30.279Z,48.40
2018-11-10T02:09:00.218Z,45.13
2018-11-10T02:11:30.198Z,48.33
2018-11-10T02:14:00.225Z,47.07
2018-11-10T02:16:30.258Z,43.53
2018-11-10T02:19:00.219Z,48.57
2018-11-10T02:21:30.161Z,40.50
2018-11-10T02:24:00.230Z,46.23
2018-11-10T02:26:30.289Z,43.00
2018-11-10T02:29:00.299Z,43.33
2018-11-10T02:31:30.263Z,47.90
2018-11-10T02:34:00.330Z,46.93
2018-11-10T02:36:30.407Z,45.17
2018-11-10T02:39:00.457Z,47.13
2018-11-10T02:41:30.483Z,49.20
2018-11-10T02:44:00.530Z,47.33
2018-11-10T02:46:30.543Z,52.23
2018-11-10T02:49:00.625Z,47.13
2018-11-10T02:51:30.625Z,46.83
2018-11-10T02:54:00.569Z,44.17
2018-11-10T02:56:30.705Z,46.70
2018-11-10T02:59:01.686Z,49.17
2018-11-10T03:01:31.741Z,42.47
2018-11-10T03:04:01.847Z,48.00
2018-11-10T03:06:31.916Z,42.90
2018-11-10T03:09:01.897Z,42.73
2018-11-10T03:11:31.933Z,42.23
2018-11-10T03:14:01.926Z,39.77
2018-11-10T03:16:32.047Z,41.10
2018-11-10T03:19:01.977Z,42.50
2018-11-10T03:21:32.225Z,45.67
2018-11-10T03:24:02.119Z,46.47
2018-11-10T03:26:32.172Z,41.50
2018-11-10T03:29:02.239Z,36.33
2018-11-10T03:31:32.387Z,41.93
2018-11-10T03:34:02.351Z,39.70
2018-11-10T03:36:32.994Z,39.07
2018-11-10T03:39:02.941Z,42.93
2018-11-10T03:41:33.037Z,42.10
2018-11-10T03:44:03.204Z,38.80
2018-11-10T03:46:33.169Z,40.50
2018-11-10T03:49:03.151Z,41.00
2018-11-10T03:51:33.147Z,40.70
2018-11-10T03:54:03.497Z,37.60
2018-11-10T03:56:33.583Z,39.57
2018-11-10T03:59:03.784Z,39.20
2018-11-10T04:01:33.901Z,38.13
2018-11-10T04:04:05.138Z,37.23
2018-11-10T04:06:36.155Z,35.37
2018-11-10T04:09:08.095Z,36.00
2018-11-10T04:11:38.159Z,39.03
2018-11-10T04:14:08.309Z,37.53
2018-11-10T04:16:40.295Z,32.37
2018-11-10T04:19:10.336Z,35.77
2018-11-10T04:21:40.303Z,36.63
2018-11-10T04:24:10.352Z,38.57
2018-11-10T04:26:41.497Z,35.77
2018-11-10T04:29:14.586Z,38.40
2018-11-10T04:31:45.759Z,38.63
2018-11-10T04:34:15.841Z,41.10
2018-11-10T04:36:45.979Z,42.27
2018-11-10T04:39:16.067Z,41.60
2018-11-10T04:41:46.052Z,41.10
2018-11-10T04:44:16.035Z,40.17
2018-11-10T04:46:46.111Z,40.17
2018-11-10T04:49:17.139Z,45.67
2018-11-10T04:51:47.301Z,43.40
2018-11-10T04:54:17.378Z,43.83
2018-11-10T04:56:47.438Z,40.67
2018-11-10T04:59:17.481Z,43.23
2018-11-10T05:01:47.648Z,44.17
2018-11-10T05:04:18.684Z,42.40
2018-11-10T05:06:49.652Z,42.93
2018-11-10T05:09:19.773Z,45.90
2018-11-10T05:11:51.011Z,47.33
2018-11-10T05:14:20.924Z,42.93
2018-11-10T05:16:55.271Z,45.13
2018-11-10T05:19:26.624Z,47.20
2018-11-10T05:21:57.863Z,46.03
2018-11-10T05:24:29.046Z,46.40
2018-11-10T05:27:09.267Z,45.90
2018-11-10T05:29:39.527Z,45.87
2018-11-10T05:32:09.565Z,44.30
2018-11-10T05:34:39.682Z,46.67
2018-11-10T05:37:09.724Z,42.17
2018-11-10T05:39:40.842Z,48.47
2018-11-10T05:42:10.906Z,47.27
2018-11-10T05:44:40.939Z,45.40
2018-11-10T05:47:10.914Z,48.37
2018-11-10T05:49:42.315Z,44.63
2018-11-10T05:52:12.337Z,45.93
2018-11-10T05:54:42.307Z,48.50
2018-11-10T05:57:13.469Z,45.00
2018-11-10T05:59:43.589Z,48.23
2018-11-10T06:02:15.807Z,47.00
2018-11-10T06:04:45.936Z,48.33
2018-11-10T06:07:16.094Z,47.07
2018-11-10T06:09:46.549Z,46.23
2018-11-10T06:12:16.596Z,48.93
2018-11-10T06:14:47.730Z,49.47
2018-11-10T06:17:19.811Z,51.70
2018-11-10T06:19:49.876Z,44.53
2018-11-10T06:22:19.927Z,51.97
2018-11-10T06:24:49.986Z,44.97
2018-11-10T06:27:20.078Z,50.07
2018-11-10T06:29:51.210Z,46.33
2018-11-10T06:32:21.192Z,49.60
2018-11-10T06:34:51.159Z,49.10
2018-11-10T06:37:21.253Z,50.47
2018-11-10T06:39:51.235Z,51.60
2018-11-10T06:42:21.246Z,50.90
2018-11-10T06:44:51.237Z,44.47
2018-11-10T06:47:21.272Z,44.33
2018-11-10T06:49:51.318Z,46.30
2018-11-10T06:52:21.333Z,48.50
2018-11-10T06:54:51.265Z,50.80
2018-11-10T06:57:21.298Z,49.40
2018-11-10T06:59:51.312Z,44.70
2018-11-10T07:02:21.457Z,47.30
2018-11-10T07:04:51.450Z,49.13
2018-11-10T07:07:21.570Z,48.10
2018-11-10T07:09:51.565Z,48.57
2018-11-10T07:12:21.671Z,50.30
2018-11-10T07:14:51.635Z,47.03
2018-11-10T07:17:21.659Z,47.93
2018-11-10T07:19:51.820Z,48.13
2018-11-10T07:22:22.866Z,44.50
2018-11-10T07:24:53.973Z,41.83
2018-11-10T07:27:23.982Z,51.70
2018-11-10T07:29:54.131Z,44.63
2018-11-10T07:32:24.239Z,47.37
2018-11-10T07:34:54.373Z,45.07
2018-11-10T07:37:24.482Z,49.60
2018-11-10T07:39:54.508Z,41.53
2018-11-10T07:42:24.498Z,43.87
2018-11-10T07:44:54.623Z,41.93
2018-11-10T07:47:24.613Z,38.97
2018-11-10T07:49:54.598Z,44.27
2018-11-10T07:52:24.572Z,40.93
2018-11-10T07:54:54.868Z,39.63
2018-11-10T07:57:25.012Z,43.37
2018-11-10T07:59:54.984Z,41.50
2018-11-10T08:02:25.015Z,45.17
2018-11-10T08:04:55.081Z,42.23
2018-11-10T08:07:25.164Z,48.40
2018-11-10T08:09:55.287Z,44.70
2018-11-10T08:12:25.528Z,45.70
2018-11-10T08:14:55.579Z,44.53
2018-11-10T08:17:25.246Z,46.50
2018-11-10T08:19:55.378Z,44.77
2018-11-10T08:22:25.414Z,46.90
2018-11-10T08:24:55.501Z,42.40
2018-11-10T08:27:25.509Z,42.73
2018-11-10T08:29:55.571Z,47.57
2018-11-10T08:32:25.935Z,44.33
2018-11-10T08:34:56.035Z,44.20
2018-11-10T08:37:26.124Z,44.17
2018-11-10T08:39:56.300Z,45.00
2018-11-10T08:42:26.468Z,46.20
2018-11-10T08:44:56.526Z,43.77
2018-11-10T08:47:30.264Z,46.70
2018-11-10T08:50:00.289Z,46.27
2018-11-10T08:52:30.365Z,44.03
2018-11-10T08:55:00.395Z,45.10
2018-11-10T08:57:31.870Z,47.17
2018-11-10T09:00:01.949Z,43.70
2018-11-10T09:02:31.956Z,42.43
2018-11-10T09:05:01.909Z,45.37
2018-11-10T09:07:32.051Z,44.20
2018-11-10T09:10:02.200Z,47.53
2018-11-10T09:12:32.188Z,42.87
2018-11-10T09:15:02.238Z,43.60
2018-11-10T09:17:32.394Z,45.77
2018-11-10T09:20:02.473Z,41.00
2018-11-10T09:22:32.542Z,42.13
2018-11-10T09:25:02.636Z,41.53
2018-11-10T09:27:32.670Z,42.67
2018-11-10T09:30:02.797Z,46.83
2018-11-10T09:32:32.899Z,42.60
2018-11-10T09:35:03.060Z,43.30
2018-11-10T09:37:33.204Z,42.13
2018-11-10T09:40:03.225Z,39.20
2018-11-10T09:42:33.434Z,42.57
2018-11-10T09:45:03.388Z,42.83
2018-11-10T09:47:33.517Z,42.87
2018-11-10T09:50:03.672Z,43.17
2018-11-10T09:52:33.729Z,42.27
2018-11-10T09:55:03.861Z,39.30
2018-11-10T09:57:34.045Z,43.33
2018-11-10T10:00:04.429Z,41.70
2018-11-10T10:02:35.052Z,39.30
2018-11-10T10:05:04.889Z,42.07
2018-11-10T10:07:34.902Z,41.23
2018-11-10T10:10:05.807Z,38.03
2018-11-10T10:12:35.881Z,42.63
2018-11-10T10:15:06.501Z,45.30
2018-11-10T10:17:36.625Z,42.37
2018-11-10T10:20:08.809Z,41.17
2018-11-10T10:22:38.961Z,41.00
2018-11-10T10:25:10.123Z,43.17
2018-11-10T10:27:40.236Z,41.30
2018-11-10T10:30:14.377Z,42.50
2018-11-10T10:32:45.164Z,38.77
2018-11-10T10:35:15.492Z,41.00
2018-11-10T10:37:46.515Z,42.67
2018-11-10T10:40:16.884Z,44.17
2018-11-10T10:42:47.354Z,43.93
2018-11-10T10:45:19.487Z,44.97
2018-11-10T10:47:49.644Z,42.83
2018-11-10T10:50:20.818Z,44.50
2018-11-10T10:52:50.913Z,42.77
2018-11-10T10:55:21.004Z,43.97
2018-11-10T10:57:51.356Z,45.80
2018-11-10T11:00:26.548Z,44.83
2018-11-10T11:02:59.435Z,50.47
2018-11-10T11:05:34.211Z,44.47
2018-11-10T11:08:04.352Z,44.50
2018-11-10T11:10:34.410Z,43.63
2018-11-10T11:13:04.559Z,46.60
2018-11-10T11:15:34.855Z,47.17
2018-11-10T11:18:04.908Z,42.67
2018-11-10T11:20:34.954Z,42.53
2018-11-10T11:23:05.145Z,44.10
2018-11-10T11:25:35.147Z,45.43
2018-11-10T11:28:05.249Z,49.13
2018-11-10T11:30:35.350Z,44.67
2018-11-10T11:33:05.742Z,48.60
2018-11-10T11:35:35.972Z,48.23
2018-11-10T11:38:06.025Z,46.50
2018-11-10T11:40:36.048Z,44.23
2018-11-10T11:43:06.586Z,47.97
2018-11-10T11:45:36.799Z,42.37
2018-11-10T11:48:07.201Z,46.10
2018-11-10T11:50:37.311Z,48.00
2018-11-10T11:53:07.837Z,48.70
2018-11-10T11:55:37.918Z,47.40
2018-11-10T11:58:08.122Z,42.97
2018-11-10T12:00:38.111Z,46.80
2018-11-10T12:03:08.190Z,48.60
2018-11-10T12:05:38.218Z,44.50
2018-11-10T12:08:08.250Z,43.60
2018-11-10T12:10:38.296Z,46.47
2018-11-10T12:13:08.491Z,44.57
2018-11-10T12:15:38.485Z,47.17
2018-11-10T12:18:08.715Z,44.13
2018-11-10T12:20:38.834Z,46.20
2018-11-10T12:23:08.841Z,50.13
2018-11-10T12:25:38.947Z,45.00
2018-11-10T12:28:09.068Z,45.27
2018-11-10T12:30:39.195Z,41.93
2018-11-10T12:33:09.147Z,44.13
2018-11-10T12:35:39.298Z,46.07
2018-11-10T12:38:09.401Z,44.57
2018-11-10T12:40:39.551Z,43.40
2018-11-10T12:43:09.655Z,43.90
2018-11-10T12:45:39.786Z,44.73
2018-11-10T12:48:09.803Z,47.67
2018-11-10T12:50:39.850Z,41.57
2018-11-10T12:53:09.974Z,40.10
2018-11-10T12:55:39.995Z,40.10
2018-11-10T12:58:09.896Z,42.27
2018-11-10T13:00:39.993Z,42.13
2018-11-10T13:03:10.885Z,42.50
2018-11-10T13:05:40.998Z,44.17
2018-11-10T13:08:11.065Z,43.13
2018-11-10T13:10:41.166Z,43.40
2018-11-10T13:13:11.143Z,41.23
2018-11-10T13:15:41.234Z,42.00
2018-11-10T13:18:11.384Z,41.30
2018-11-10T13:20:41.541Z,38.97
2018-11-10T13:23:11.715Z,43.53
2018-11-10T13:25:41.843Z,43.30
2018-11-10T13:28:12.001Z,46.50
2018-11-10T13:30:42.207Z,43.43
2018-11-10T13:33:15.330Z,36.23
2018-11-10T13:35:45.369Z,44.07
2018-11-10T13:38:15.585Z,41.00
2018-11-10T13:40:45.553Z,38.13
2018-11-10T13:43:15.716Z,36.70
2018-11-10T13:45:45.833Z,35.17
2018-11-10T13:48:15.923Z,41.57
2018-11-10T13:50:46.175Z,37.73
2018-11-10T13:53:16.120Z,36.97
2018-11-10T13:55:46.165Z,36.83
2018-11-10T13:58:16.135Z,38.20
2018-11-10T14:00:46.222Z,38.17
2018-11-10T14:03:17.861Z,38.90
2018-11-10T14:05:48.055Z,39.27
2018-11-10T14:08:18.212Z,40.23
2018-11-10T14:10:48.328Z,38.17
2018-11-10T14:13:18.351Z,39.63
2018-11-10T14:15:48.342Z,39.63
2018-11-10T14:18:32.956Z,44.00
2018-11-10T14:21:03.064Z,41.07
2018-11-10T14:23:33.186Z,37.37
2018-11-10T14:26:02.990Z,38.97
2018-11-10T14:28:32.982Z,37.17
2018-11-10T14:31:02.952Z,39.63
2018-11-10T14:33:32.871Z,38.67
2018-11-10T14:36:02.871Z,34.03
2018-11-10T14:38:32.991Z,38.30
2018-11-10T14:41:03.012Z,38.47
2018-11-10T14:43:32.994Z,41.03
2018-11-10T14:46:03.071Z,38.87
2018-11-10T14:48:33.201Z,39.67
2018-11-10T14:51:03.174Z,37.37
2018-11-10T14:53:33.237Z,38.43
2018-11-10T14:56:03.202Z,38.33
2018-11-10T14:58:33.306Z,38.10
2018-11-10T15:01:03.405Z,37.23
2018-11-10T15:03:33.507Z,36.97
2018-11-10T15:06:03.584Z,37.50
2018-11-10T15:08:33.644Z,37.23
2018-11-10T15:11:03.801Z,37.47
2018-11-10T15:13:33.826Z,38.07
2018-11-10T15:16:03.807Z,38.03
2018-11-10T15:18:33.903Z,36.50
2018-11-10T15:21:03.874Z,38.37
2018-11-10T15:23:33.933Z,41.30
2018-11-10T15:26:03.992Z,39.60
2018-11-10T15:28:34.053Z,36.23
2018-11-10T15:31:04.054Z,38.40
2018-11-10T15:33:34.038Z,37.83
2018-11-10T15:36:04.049Z,37.80
2018-11-10T15:38:33.941Z,40.67
2018-11-10T15:41:04.007Z,39.73
2018-11-10T15:43:33.996Z,39.40
2018-11-10T15:46:04.324Z,46.57
2018-11-10T15:48:34.389Z,40.00
2018-11-10T15:51:04.434Z,45.10
2018-11-10T15:53:34.453Z,49.80
2018-11-10T15:56:04.494Z,49.57
2018-11-10T15:58:34.528Z,47.33
2018-11-10T16:01:04.634Z,51.07
2018-11-10T16:03:34.700Z,49.53
2018-11-10T16:06:04.802Z,53.83
2018-11-10T16:08:34.852Z,46.93
2018-11-10T16:11:04.844Z,52.30
2018-11-10T16:13:34.905Z,49.53
2018-11-10T16:16:04.898Z,50.97
2018-11-10T16:18:34.991Z,48.27
2018-11-10T16:21:04.980Z,51.27
2018-11-10T16:23:35.038Z,52.83
2018-11-10T16:26:05.054Z,48.63
2018-11-10T16:28:35.180Z,44.10
2018-11-10T16:31:05.143Z,46.50
2018-11-10T16:33:35.112Z,48.73
2018-11-10T16:36:05.316Z,51.57
2018-11-10T16:38:35.362Z,45.23
2018-11-10T16:41:05.535Z,42.53
2018-11-10T16:43:35.594Z,46.53
2018-11-10T16:46:05.950Z,46.40
2018-11-10T16:48:35.968Z,46.77
2018-11-10T16:51:06.038Z,42.50
2018-11-10T16:53:36.137Z,46.73
2018-11-10T16:56:06.142Z,42.17
2018-11-10T16:58:36.121Z,45.43
2018-11-10T17:01:06.173Z,44.70
2018-11-10T17:03:36.179Z,45.70
2018-11-10T17:06:06.223Z,45.57
2018-11-10T17:08:36.297Z,45.67
2018-11-10T17:11:07.012Z,42.57
2018-11-10T17:13:37.105Z,40.77
2018-11-10T17:16:07.110Z,43.53
2018-11-10T17:18:37.166Z,43.83
2018-11-10T17:21:07.283Z,46.67
2018-11-10T17:23:37.209Z,40.73
2018-11-10T17:26:07.280Z,43.00
2018-11-10T17:28:37.267Z,43.93
2018-11-10T17:31:07.219Z,35.63
2018-11-10T17:33:37.260Z,38.77
2018-11-10T17:36:07.454Z,42.77
2018-11-10T17:38:37.489Z,41.40
2018-11-10T17:41:07.584Z,41.30
2018-11-10T17:43:37.540Z,39.23
2018-11-10T17:46:07.610Z,38.67
2018-11-10T17:48:37.648Z,38.00
2018-11-10T17:51:07.676Z,36.53
2018-11-10T17:53:37.726Z,37.80
2018-11-10T17:56:07.740Z,39.67
2018-11-10T17:58:37.711Z,36.53
2018-11-10T18:01:07.718Z,37.00
2018-11-10T18:03:37.975Z,37.50
2018-11-10T18:06:08.042Z,39.87
2018-11-10T18:08:38.081Z,34.87
2018-11-10T18:11:08.099Z,35.77
2018-11-10T18:13:39.194Z,36.63
2018-11-10T18:16:09.151Z,32.10
2018-11-10T18:18:39.215Z,41.47
2018-11-10T18:21:09.235Z,37.53
2018-11-10T18:23:39.255Z,35.47
2018-11-10T18:26:09.233Z,36.13
2018-11-10T18:28:39.169Z,36.27
2018-11-10T18:31:09.163Z,36.50
2018-11-10T18:33:39.183Z,35.03
2018-11-10T18:36:09.247Z,35.33
2018-11-10T18:38:39.230Z,30.80
2018-11-10T18:41:09.283Z,33.93
2018-11-10T18:43:39.299Z,40.60
2018-11-10T18:46:09.309Z,37.23
2018-11-10T18:48:39.361Z,40.13
2018-11-10T18:51:09.385Z,34.40
2018-11-10T18:53:40.374Z,37.03
2018-11-10T18:56:10.382Z,37.00
2018-11-10T18:58:40.379Z,38.33
2018-11-10T19:01:10.440Z,40.33
2018-11-10T19:03:40.842Z,36.67
2018-11-10T19:06:10.897Z,35.10
2018-11-10T19:08:41.020Z,36.97
2018-11-10T19:11:11.028Z,34.40
2018-11-10T19:13:40.995Z,37.33
2018-11-10T19:16:10.981Z,33.33
2018-11-10T19:18:40.930Z,37.47
2018-11-10T19:21:11.074Z,33.60
2018-11-10T19:23:40.951Z,34.87
2018-11-10T19:26:10.867Z,38.17
2018-11-10T19:28:40.862Z,38.23
2018-11-10T19:31:10.872Z,35.80
2018-11-10T19:33:40.968Z,35.97
2018-11-10T19:36:11.061Z,37.17
2018-11-10T19:38:41.090Z,35.37
2018-11-10T19:41:11.132Z,34.93
2018-11-10T19:43:41.105Z,38.60
2018-11-10T19:46:11.327Z,35.47
2018-11-10T19:48:41.324Z,31.27
2018-11-10T19:51:11.406Z,39.57
2018-11-10T19:53:41.974Z,33.20
2018-11-10T19:56:12.429Z,33.33
2018-11-10T19:58:42.399Z,37.20
2018-11-10T20:01:12.420Z,33.30
2018-11-10T20:03:42.418Z,35.37
2018-11-10T20:06:12.368Z,33.97
2018-11-10T20:08:42.350Z,34.87
2018-11-10T20:11:12.445Z,33.73
2018-11-10T20:13:42.430Z,35.90
2018-11-10T20:16:12.376Z,39.67
2018-11-10T20:18:42.383Z,38.77
2018-11-10T20:21:12.390Z,39.63
2018-11-10T20:23:42.380Z,35.80
2018-11-10T20:26:12.060Z,35.37
2018-11-10T20:28:42.097Z,35.00
2018-11-10T20:31:12.307Z,36.60
2018-11-10T20:33:42.316Z,38.13
2018-11-10T20:36:12.295Z,36.23
2018-11-10T20:38:42.240Z,36.53
2018-11-10T20:41:12.282Z,36.93
2018-11-10T20:43:42.358Z,33.47
2018-11-10T20:46:12.354Z,35.70
2018-11-10T20:48:42.380Z,33.23
2018-11-10T20:51:12.476Z,35.20
2018-11-10T20:53:42.422Z,31.27
2018-11-10T20:56:12.484Z,33.30
2018-11-10T20:58:42.508Z,33.40
2018-11-10T21:01:12.529Z,34.03
2018-11-10T21:03:42.571Z,34.10
2018-11-10T21:06:12.619Z,36.50
2018-11-10T21:08:42.613Z,32.17
2018-11-10T21:11:12.654Z,30.53
2018-11-10T21:13:42.688Z,34.20
2018-11-10T21:16:12.788Z,32.50
2018-11-10T21:18:42.834Z,32.33
2018-11-10T21:21:12.848Z,29.00
2018-11-10T21:23:42.927Z,30.67
2018-11-10T21:26:12.943Z,29.30
2018-11-10T21:28:43.018Z,30.93
2018-11-10T21:31:13.043Z,34.73
2018-11-10T21:33:43.148Z,32.60
2018-11-10T21:36:13.288Z,32.87
2018-11-10T21:38:43.266Z,29.47
2018-11-10T21:41:13.298Z,33.07
2018-11-10T21:43:43.212Z,30.80
2018-11-10T21:46:13.263Z,31.47
2018-11-10T21:48:43.280Z,31.80
2018-11-10T21:51:13.259Z,30.70
2018-11-10T21:53:43.305Z,35.23
2018-11-10T21:56:13.306Z,32.33
2018-11-10T21:58:43.188Z,32.13
2018-11-10T22:01:13.237Z,32.97
2018-11-10T22:03:43.324Z,30.73
2018-11-10T22:06:13.314Z,32.23
2018-11-10T22:08:43.218Z,30.33
2018-11-10T22:11:13.199Z,32.57
2018-11-10T22:13:43.107Z,28.37
2018-11-10T22:16:13.174Z,34.17
2018-11-10T22:18:43.231Z,33.37
2018-11-10T22:21:13.334Z,34.97
2018-11-10T22:23:43.296Z,32.63
2018-11-10T22:26:13.289Z,33.43
2018-11-10T22:28:43.179Z,33.47
2018-11-10T22:31:13.268Z,35.13
2018-11-10T22:33:43.292Z,35.83
2018-11-10T22:36:13.323Z,29.57
2018-11-10T22:38:43.341Z,29.43
2018-11-10T22:41:13.395Z,32.33
2018-11-10T22:43:43.755Z,33.10
2018-11-10T22:46:13.988Z,30.90
2018-11-10T22:48:44.055Z,31.30
2018-11-10T22:51:14.094Z,32.60
2018-11-10T22:53:44.022Z,32.97
2018-11-10T22:56:14.008Z,30.20
2018-11-10T22:58:44.075Z,31.37
2018-11-10T23:01:14.019Z,31.33
2018-11-10T23:03:44.135Z,27.73
2018-11-10T23:06:14.108Z,31.23
2018-11-10T23:08:44.103Z,31.43
2018-11-10T23:11:14.108Z,30.10
2018-11-10T23:13:44.043Z,31.50
2018-11-10T23:16:14.041Z,28.30
2018-11-10T23:18:44.047Z,30.00
2018-11-10T23:21:14.021Z,34.07
2018-11-10T23:23:44.059Z,30.20
2018-11-10T23:26:14.092Z,29.90
2018-11-10T23:28:44.138Z,28.50
2018-11-10T23:31:14.232Z,29.60
2018-11-10T23:33:44.215Z,32.33
2018-11-10T23:36:14.222Z,33.33
2018-11-10T23:38:44.241Z,32.33
2018-11-10T23:41:14.274Z,28.53
2018-11-10T23:43:44.296Z,31.97
2018-11-10T23:46:14.411Z,31.50
2018-11-10T23:48:44.444Z,31.30
2018-11-10T23:51:14.532Z,29.87
2018-11-10T23:53:44.618Z,29.27
2018-11-10T23:56:14.639Z,29.97
2018-11-10T23:58:44.579Z,29.30
